createdAt,value
2019-04-10T00:01:23.557Z,65.44
2019-04-10T00:03:52.933Z,65.73
2019-04-10T00:06:22.215Z,65.40
2019-04-10T00:08:52.665Z,65.32
2019-04-10T00:11:22.805Z,65.29
2019-04-10T00:13:53.175Z,65.32
2019-04-10T00:16:22.489Z,65.23
2019-04-10T00:18:51.805Z,65.30
2019-04-10T00:21:21.106Z,65.27
2019-04-10T00:23:51.245Z,65.17
2019-04-10T00:26:21.558Z,65.55
2019-04-10T00:28:51.898Z,65.29
2019-04-10T00:31:22.833Z,65.58
2019-04-10T00:33:52.055Z,65.90
2019-04-10T00:36:21.233Z,65.29
2019-04-10T00:38:50.419Z,65.44
2019-04-10T00:41:19.768Z,65.57
2019-04-10T00:43:49.135Z,65.64
2019-04-10T00:46:18.365Z,65.50
2019-04-10T00:48:48.176Z,65.45
2019-04-10T00:51:19.321Z,65.59
2019-04-10T00:53:49.655Z,65.93
2019-04-10T00:56:19.269Z,66.12
2019-04-10T00:58:48.829Z,65.73
2019-04-10T01:01:18.031Z,65.66
2019-04-10T01:03:48.690Z,65.88
2019-04-10T01:06:18.125Z,65.41
2019-04-10T01:08:47.397Z,65.38
2019-04-10T01:11:17.106Z,65.63
2019-04-10T01:13:47.180Z,65.62
2019-04-10T01:16:17.806Z,65.53
2019-04-10T01:18:47.805Z,65.90
2019-04-10T01:21:18.047Z,65.45
2019-04-10T01:23:47.480Z,66.01
2019-04-10T01:26:16.974Z,65.45
2019-04-10T01:28:47.081Z,65.39
2019-04-10T01:31:17.131Z,65.88
2019-04-10T01:33:47.408Z,65.64
2019-04-10T01:36:16.742Z,65.54
2019-04-10T01:38:46.244Z,65.92
2019-04-10T01:41:15.576Z,66.47
2019-04-10T01:43:44.764Z,66.42
2019-04-10T01:46:13.970Z,66.23
2019-04-10T01:48:44.000Z,65.94
2019-04-10T01:51:13.329Z,65.85
2019-04-10T01:53:42.542Z,66.37
2019-04-10T01:56:22.872Z,66.25
2019-04-10T01:58:45.242Z,66.40
2019-04-10T02:01:22.375Z,66.40
2019-04-10T02:03:52.042Z,66.44
2019-04-10T02:06:21.250Z,66.74
2019-04-10T02:08:50.454Z,66.53
2019-04-10T02:11:19.684Z,66.27
2019-04-10T02:13:49.701Z,66.54
2019-04-10T02:16:19.083Z,66.00
2019-04-10T02:18:48.263Z,66.25
2019-04-10T02:21:17.967Z,66.43
2019-04-10T02:23:47.190Z,66.49
2019-04-10T02:26:17.101Z,66.50
2019-04-10T02:28:47.005Z,66.37
2019-04-10T02:31:16.227Z,66.37
2019-04-10T02:33:45.428Z,66.64
2019-04-10T02:36:14.764Z,66.48
2019-04-10T02:38:58.789Z,66.45
2019-04-10T02:41:14.859Z,66.59
2019-04-10T02:43:45.304Z,66.37
2019-04-10T02:46:15.567Z,66.42
2019-04-10T02:48:44.880Z,66.42
2019-04-10T02:51:15.484Z,66.59
2019-04-10T02:53:45.932Z,66.32
2019-04-10T02:56:15.932Z,66.72
2019-04-10T02:58:46.885Z,67.21
2019-04-10T03:01:17.461Z,67.29
2019-04-10T03:03:46.747Z,67.38
2019-04-10T03:06:16.003Z,67.17
2019-04-10T03:09:03.417Z,66.82
2019-04-10T03:11:16.942Z,66.61
2019-04-10T03:13:47.316Z,66.79
2019-04-10T03:16:17.708Z,67.05
2019-04-10T03:18:47.302Z,67.23
2019-04-10T03:21:16.546Z,67.06
2019-04-10T03:23:45.718Z,66.67
2019-04-10T03:26:15.358Z,66.82
2019-04-10T03:28:44.706Z,66.41
2019-04-10T03:31:15.704Z,66.50
2019-04-10T03:33:55.897Z,66.65
2019-04-10T03:36:27.389Z,67.07
2019-04-10T03:39:01.437Z,66.40
2019-04-10T03:41:28.194Z,66.63
2019-04-10T03:43:58.408Z,67.04
2019-04-10T03:46:27.749Z,66.68
2019-04-10T03:48:57.742Z,66.66
2019-04-10T03:51:26.979Z,66.11
2019-04-10T03:53:56.461Z,66.76
2019-04-10T03:56:26.309Z,66.43
2019-04-10T03:58:55.926Z,66.05
2019-04-10T04:01:25.455Z,65.78
2019-04-10T04:03:55.173Z,65.46
2019-04-10T04:06:24.385Z,65.82
2019-04-10T04:09:03.322Z,65.91
2019-04-10T04:11:24.461Z,66.24
2019-04-10T04:13:53.641Z,66.08
2019-04-10T04:16:22.853Z,66.25
2019-04-10T04:18:52.022Z,66.84
2019-04-10T04:21:21.218Z,66.66
2019-04-10T04:23:51.093Z,67.25
2019-04-10T04:26:21.248Z,67.30
2019-04-10T04:28:51.566Z,67.36
2019-04-10T04:31:20.759Z,67.28
2019-04-10T04:33:50.063Z,67.57
2019-04-10T04:36:20.299Z,67.47
2019-04-10T04:38:49.584Z,67.60
2019-04-10T04:41:19.588Z,67.51
2019-04-10T04:43:50.094Z,67.48
2019-04-10T04:46:20.462Z,67.57
2019-04-10T04:48:50.079Z,67.20
2019-04-10T04:51:19.717Z,67.05
2019-04-10T04:53:49.044Z,66.40
2019-04-10T04:56:18.237Z,66.31
2019-04-10T04:58:47.602Z,66.83
2019-04-10T05:01:16.985Z,66.93
2019-04-10T05:03:46.397Z,66.06
2019-04-10T05:06:16.032Z,65.90
2019-04-10T05:08:46.267Z,65.99
2019-04-10T05:11:15.417Z,66.15
2019-04-10T05:13:44.725Z,65.83
2019-04-10T05:16:14.453Z,65.67
2019-04-10T05:18:43.662Z,66.06
2019-04-10T05:21:12.814Z,65.96
2019-04-10T05:23:42.822Z,65.64
2019-04-10T05:26:12.053Z,65.65
2019-04-10T05:28:41.336Z,65.84
2019-04-10T05:31:10.903Z,65.60
2019-04-10T05:33:40.765Z,65.87
2019-04-10T05:36:10.032Z,65.86
2019-04-10T05:38:39.218Z,66.28
2019-04-10T05:41:09.150Z,66.02
2019-04-10T05:43:38.390Z,65.83
2019-04-10T05:46:07.574Z,65.38
2019-04-10T05:48:36.768Z,65.12
2019-04-10T05:51:07.900Z,65.13
2019-04-10T05:53:36.819Z,64.96
2019-04-10T05:56:06.060Z,64.39
2019-04-10T05:58:35.247Z,64.98
2019-04-10T06:01:06.004Z,64.69
2019-04-10T06:03:35.207Z,64.81
2019-04-10T06:06:04.507Z,64.45
2019-04-10T06:08:33.682Z,64.52
2019-04-10T06:11:02.853Z,64.41
2019-04-10T06:13:32.607Z,64.62
2019-04-10T06:16:01.924Z,64.04
2019-04-10T06:18:31.449Z,64.16
2019-04-10T06:21:00.894Z,63.89
2019-04-10T06:23:30.068Z,63.46
2019-04-10T06:26:00.497Z,63.29
2019-04-10T06:28:30.963Z,63.10
2019-04-10T06:31:00.672Z,63.08
2019-04-10T06:33:29.959Z,62.63
2019-04-10T06:35:59.127Z,62.43
2019-04-10T06:38:28.680Z,62.68
2019-04-10T06:40:57.913Z,62.22
2019-04-10T06:43:27.076Z,62.71
2019-04-10T06:45:56.262Z,62.44
2019-04-10T06:48:25.926Z,62.38
2019-04-10T06:50:55.642Z,62.95
2019-04-10T06:53:25.000Z,62.34
2019-04-10T06:55:54.472Z,62.10
2019-04-10T06:58:23.788Z,62.22
2019-04-10T07:00:53.826Z,62.69
2019-04-10T07:03:23.821Z,62.42
2019-04-10T07:06:03.372Z,61.80
2019-04-10T07:08:26.039Z,57.98
2019-04-10T07:11:03.328Z,54.40
2019-04-10T07:13:28.112Z,50.15
2019-04-10T07:15:58.430Z,49.89
2019-04-10T07:18:28.413Z,46.09
2019-04-10T07:21:01.077Z,46.54
2019-04-10T07:23:30.465Z,42.08
2019-04-10T07:25:59.499Z,43.69
2019-04-10T07:28:29.758Z,42.17
2019-04-10T07:31:05.009Z,42.97
2019-04-10T07:33:30.864Z,43.34
2019-04-10T07:36:04.292Z,44.08
2019-04-10T07:38:31.092Z,41.60
2019-04-10T07:41:00.296Z,40.21
2019-04-10T07:43:30.585Z,39.62
2019-04-10T07:45:59.817Z,40.44
2019-04-10T07:48:29.437Z,36.85
2019-04-10T07:50:58.645Z,33.14
2019-04-10T07:53:27.857Z,31.97
2019-04-10T07:56:05.308Z,31.97
2019-04-10T07:58:29.206Z,31.04
2019-04-10T08:00:58.896Z,31.80
2019-04-10T08:03:28.785Z,33.75
2019-04-10T08:05:58.265Z,33.08
2019-04-10T08:08:27.817Z,33.63
2019-04-10T08:10:57.450Z,32.73
2019-04-10T08:13:26.848Z,33.85
2019-04-10T08:15:56.352Z,37.28
2019-04-10T08:18:25.768Z,36.95
2019-04-10T08:20:55.189Z,34.77
2019-04-10T08:23:24.394Z,33.68
2019-04-10T08:25:53.787Z,35.56
2019-04-10T08:28:23.995Z,33.92
2019-04-10T08:30:53.313Z,32.76
2019-04-10T08:33:22.485Z,32.76
2019-04-10T08:35:51.720Z,37.18
2019-04-10T08:38:21.797Z,40.84
2019-04-10T08:40:51.026Z,42.09
2019-04-10T08:43:20.290Z,44.50
2019-04-10T08:45:52.092Z,45.60
2019-04-10T08:48:20.357Z,46.79
2019-04-10T08:50:50.366Z,47.21
2019-04-10T08:53:20.131Z,47.85
2019-04-10T08:55:50.418Z,47.39
2019-04-10T08:58:20.793Z,48.26
2019-04-10T09:00:52.409Z,48.09
2019-04-10T09:03:20.998Z,48.47
2019-04-10T09:05:51.075Z,48.36
2019-04-10T09:08:21.138Z,48.69
2019-04-10T09:10:50.495Z,49.13
2019-04-10T09:13:20.130Z,49.16
2019-04-10T09:15:49.987Z,48.92
2019-04-10T09:18:19.200Z,49.56
2019-04-10T09:20:49.046Z,50.11
2019-04-10T09:23:29.772Z,50.40
2019-04-10T09:25:49.218Z,50.07
2019-04-10T09:28:18.364Z,50.53
2019-04-10T09:30:47.563Z,50.60
2019-04-10T09:33:22.001Z,50.23
2019-04-10T09:35:48.777Z,50.46
2019-04-10T09:38:18.825Z,49.55
2019-04-10T09:40:48.854Z,48.44
2019-04-10T09:43:18.105Z,48.68
2019-04-10T09:45:48.065Z,49.24
2019-04-10T09:48:17.349Z,49.33
2019-04-10T09:50:46.530Z,49.69
2019-04-10T09:53:15.707Z,50.18
2019-04-10T09:55:46.855Z,49.50
2019-04-10T09:58:16.194Z,48.87
2019-04-10T10:00:45.872Z,49.07
2019-04-10T10:03:15.276Z,49.18
2019-04-10T10:05:44.683Z,49.38
2019-04-10T10:08:14.963Z,49.76
2019-04-10T10:10:45.005Z,49.57
2019-04-10T10:13:15.075Z,49.71
2019-04-10T10:15:45.221Z,49.61
2019-04-10T10:18:14.514Z,49.35
2019-04-10T10:20:44.009Z,49.79
2019-04-10T10:23:13.732Z,49.75
2019-04-10T10:25:43.653Z,50.44
2019-04-10T10:28:13.232Z,50.10
2019-04-10T10:30:42.582Z,49.99
2019-04-10T10:33:13.178Z,49.51
2019-04-10T10:35:43.174Z,49.66
2019-04-10T10:38:12.755Z,49.13
2019-04-10T10:40:41.925Z,49.13
2019-04-10T10:43:29.468Z,48.70
2019-04-10T10:45:58.947Z,48.72
2019-04-10T10:48:28.226Z,48.96
2019-04-10T10:50:58.279Z,49.10
2019-04-10T10:53:28.277Z,49.14
2019-04-10T10:55:57.991Z,49.67
2019-04-10T10:58:27.964Z,49.70
2019-04-10T11:00:57.729Z,49.71
2019-04-10T11:03:26.987Z,48.98
2019-04-10T11:05:56.153Z,48.85
2019-04-10T11:08:25.333Z,47.84
2019-04-10T11:10:57.206Z,48.11
2019-04-10T11:13:26.511Z,48.20
2019-04-10T11:15:56.303Z,47.91
2019-04-10T11:18:26.207Z,47.86
2019-04-10T11:21:00.622Z,47.63
2019-04-10T11:23:26.290Z,48.21
2019-04-10T11:25:57.656Z,48.38
2019-04-10T11:28:30.190Z,48.60
2019-04-10T11:30:58.615Z,47.90
2019-04-10T11:33:27.989Z,48.20
2019-04-10T11:35:57.251Z,46.17
2019-04-10T11:38:27.329Z,46.66
2019-04-10T11:40:59.760Z,47.08
2019-04-10T11:43:27.901Z,46.34
2019-04-10T11:46:01.776Z,45.83
2019-04-10T11:48:29.303Z,45.37
2019-04-10T11:51:00.633Z,45.60
2019-04-10T11:53:35.335Z,45.18
2019-04-10T11:56:05.258Z,45.08
2019-04-10T11:58:31.427Z,44.17
2019-04-10T12:01:02.558Z,44.22
2019-04-10T12:03:34.314Z,44.27
2019-04-10T12:06:04.232Z,44.34
2019-04-10T12:09:00.352Z,43.05
2019-04-10T12:13:34.477Z,43.24
2019-04-10T12:16:05.158Z,43.31
2019-04-10T12:18:35.085Z,43.15
2019-04-10T12:21:05.235Z,43.02
2019-04-10T12:23:34.713Z,42.31
2019-04-10T12:26:03.991Z,42.08
2019-04-10T12:28:33.930Z,42.15
2019-04-10T12:31:03.831Z,41.96
2019-04-10T12:33:33.737Z,41.79
2019-04-10T12:36:04.557Z,42.19
2019-04-10T12:38:34.021Z,42.79
2019-04-10T12:41:03.412Z,42.98
2019-04-10T12:43:32.698Z,43.88
2019-04-10T12:46:02.356Z,43.74
2019-04-10T12:48:31.609Z,42.59
2019-04-10T12:51:01.395Z,42.90
2019-04-10T12:53:31.661Z,43.06
2019-04-10T12:56:01.965Z,42.80
2019-04-10T12:58:31.171Z,42.18
2019-04-10T13:01:00.717Z,42.55
2019-04-10T13:03:29.933Z,43.42
2019-04-10T13:05:59.786Z,43.33
2019-04-10T13:08:47.211Z,43.36
2019-04-10T13:11:00.200Z,43.02
2019-04-10T13:13:30.364Z,42.77
2019-04-10T13:15:59.539Z,42.73
2019-04-10T13:18:28.700Z,42.93
2019-04-10T13:21:16.148Z,43.23
2019-04-10T13:24:09.027Z,42.20
2019-04-10T13:26:38.263Z,41.90
2019-04-10T13:29:07.782Z,41.70
2019-04-10T13:31:37.346Z,41.71
2019-04-10T13:34:06.621Z,40.53
2019-04-10T13:36:35.794Z,40.90
2019-04-10T13:39:06.726Z,41.66
2019-04-10T13:41:36.671Z,41.20
2019-04-10T13:44:06.579Z,41.38
2019-04-10T13:46:37.183Z,41.30
2019-04-10T13:49:06.514Z,39.56
2019-04-10T13:51:35.697Z,39.97
2019-04-10T13:54:06.139Z,40.15
2019-04-10T13:56:35.404Z,39.25
2019-04-10T13:59:04.795Z,39.33
2019-04-10T14:01:35.742Z,39.23
2019-04-10T14:04:05.120Z,39.10
2019-04-10T14:06:34.342Z,39.14
2019-04-10T14:09:22.500Z,38.94
2019-04-10T14:11:39.552Z,38.81
2019-04-10T14:14:08.754Z,39.47
2019-04-10T14:16:38.897Z,39.34
2019-04-10T14:19:09.582Z,38.84
2019-04-10T14:21:40.899Z,39.19
2019-04-10T14:24:11.486Z,38.53
2019-04-10T14:26:48.853Z,39.38
2019-04-10T14:29:16.416Z,39.05
2019-04-10T14:31:47.274Z,39.46
2019-04-10T14:34:18.864Z,40.11
2019-04-10T14:36:49.243Z,39.92
2019-04-10T14:39:21.207Z,40.06
2019-04-10T14:41:49.858Z,39.90
2019-04-10T14:44:19.104Z,40.26
2019-04-10T14:46:48.282Z,40.56
2019-04-10T14:49:18.682Z,40.63
2019-04-10T14:51:48.486Z,40.57
2019-04-10T14:54:18.074Z,40.54
2019-04-10T14:56:48.364Z,40.89
2019-04-10T14:59:17.881Z,41.42
2019-04-10T15:01:48.285Z,40.90
2019-04-10T15:04:17.633Z,40.66
2019-04-10T15:06:47.879Z,41.04
2019-04-10T15:09:25.708Z,40.89
2019-04-10T15:11:53.259Z,41.23
2019-04-10T15:14:25.935Z,40.95
2019-04-10T15:17:01.819Z,41.00
2019-04-10T15:19:27.083Z,41.28
2019-04-10T15:21:56.212Z,41.27
2019-04-10T15:24:25.816Z,40.98
2019-04-10T15:26:55.619Z,40.53
2019-04-10T15:29:24.883Z,40.43
2019-04-10T15:31:54.084Z,41.05
2019-04-10T15:34:23.326Z,40.70
2019-04-10T15:36:52.857Z,40.22
2019-04-10T15:39:31.415Z,40.67
2019-04-10T15:41:53.210Z,40.49
2019-04-10T15:44:22.378Z,40.59
2019-04-10T15:46:51.582Z,40.57
2019-04-10T15:49:20.767Z,41.25
2019-04-10T15:52:08.139Z,40.87
2019-04-10T15:54:55.571Z,40.87
2019-04-10T15:57:24.993Z,41.21
2019-04-10T15:59:54.634Z,40.84
2019-04-10T16:02:25.833Z,41.25
2019-04-10T16:04:55.377Z,40.87
2019-04-10T16:07:24.566Z,41.16
2019-04-10T16:09:56.629Z,41.32
2019-04-10T16:12:26.933Z,41.66
2019-04-10T16:14:57.054Z,41.21
2019-04-10T16:17:46.369Z,41.57
2019-04-10T16:20:27.237Z,41.80
2019-04-10T16:23:14.770Z,41.79
2019-04-10T16:25:52.326Z,42.06
2019-04-10T16:28:22.777Z,41.89
2019-04-10T16:30:52.113Z,41.95
2019-04-10T16:33:21.274Z,42.14
2019-04-10T16:35:50.585Z,42.24
2019-04-10T16:38:20.544Z,42.22
2019-04-10T16:40:50.004Z,42.19
2019-04-10T16:43:20.192Z,42.64
2019-04-10T16:45:49.537Z,43.09
2019-04-10T16:48:18.936Z,43.44
2019-04-10T16:50:48.158Z,44.05
2019-04-10T16:53:18.110Z,44.61
2019-04-10T16:55:47.216Z,45.14
2019-04-10T16:58:16.387Z,44.99
2019-04-10T17:00:45.729Z,45.15
2019-04-10T17:03:15.621Z,44.67
2019-04-10T17:05:45.933Z,44.67
2019-04-10T17:08:16.173Z,44.88
2019-04-10T17:10:46.114Z,44.86
2019-04-10T17:13:16.231Z,45.44
2019-04-10T17:15:48.206Z,45.93
2019-04-10T17:18:17.074Z,46.71
2019-04-10T17:20:46.864Z,47.71
2019-04-10T17:23:16.500Z,48.04
2019-04-10T17:25:46.564Z,47.96
2019-04-10T17:28:16.431Z,47.67
2019-04-10T17:30:46.383Z,48.21
2019-04-10T17:33:16.600Z,47.94
2019-04-10T17:35:46.038Z,47.80
2019-04-10T17:38:15.211Z,47.45
2019-04-10T17:40:50.876Z,47.72
2019-04-10T17:43:16.747Z,47.50
2019-04-10T17:45:46.857Z,47.33
2019-04-10T17:48:16.107Z,47.32
2019-04-10T17:50:45.722Z,47.33
2019-04-10T17:53:16.574Z,47.78
2019-04-10T17:55:45.974Z,47.82
2019-04-10T17:58:15.147Z,47.92
2019-04-10T18:00:47.175Z,47.75
2019-04-10T18:03:18.526Z,48.13
2019-04-10T18:05:47.397Z,47.99
2019-04-10T18:08:16.725Z,48.23
2019-04-10T18:10:49.871Z,48.15
2019-04-10T18:13:16.807Z,48.22
2019-04-10T18:15:46.354Z,48.69
2019-04-10T18:18:15.845Z,48.54
2019-04-10T18:20:46.323Z,48.67
2019-04-10T18:23:15.730Z,48.55
2019-04-10T18:25:44.879Z,48.68
2019-04-10T18:28:14.048Z,49.34
2019-04-10T18:30:44.199Z,49.20
2019-04-10T18:33:14.163Z,49.28
2019-04-10T18:35:43.547Z,49.38
2019-04-10T18:38:13.259Z,49.40
2019-04-10T18:40:52.245Z,49.85
2019-04-10T18:43:14.350Z,49.68
2019-04-10T18:45:54.859Z,50.11
2019-04-10T18:48:14.598Z,50.42
2019-04-10T18:50:43.855Z,50.38
2019-04-10T18:53:13.224Z,50.52
2019-04-10T18:55:42.822Z,50.88
2019-04-10T18:58:13.796Z,50.90
2019-04-10T19:00:51.128Z,51.15
2019-04-10T19:03:48.874Z,51.22
2019-04-10T19:06:12.660Z,51.67
2019-04-10T19:08:41.915Z,51.98
2019-04-10T19:13:42.442Z,52.29
2019-04-10T19:16:12.922Z,52.58
2019-04-10T19:18:42.207Z,52.85
2019-04-10T19:21:11.537Z,53.05
2019-04-10T19:23:41.754Z,53.20
2019-04-10T19:26:13.829Z,53.38
2019-04-10T19:28:45.062Z,53.11
2019-04-10T19:31:21.286Z,53.24
2019-04-10T19:33:49.351Z,53.19
2019-04-10T19:36:19.461Z,53.31
2019-04-10T19:38:49.610Z,52.73
2019-04-10T19:41:25.120Z,53.07
2019-04-10T19:43:50.505Z,53.36
2019-04-10T19:46:19.839Z,53.56
2019-04-10T19:48:51.631Z,53.58
2019-04-10T19:51:19.929Z,53.97
2019-04-10T19:53:49.256Z,54.06
2019-04-10T19:56:18.379Z,53.94
2019-04-10T19:58:47.595Z,54.01
2019-04-10T20:01:17.069Z,53.74
2019-04-10T20:03:54.210Z,53.84
2019-04-10T20:06:24.271Z,53.28
2019-04-10T20:08:55.632Z,53.48
2019-04-10T20:11:33.905Z,53.41
2019-04-10T20:13:57.042Z,53.52
2019-04-10T20:16:27.043Z,53.56
2019-04-10T20:18:57.333Z,53.59
2019-04-10T20:21:26.526Z,53.82
2019-04-10T20:23:56.360Z,53.92
2019-04-10T20:26:25.591Z,54.31
2019-04-10T20:28:56.068Z,54.29
2019-04-10T20:31:26.947Z,54.06
2019-04-10T20:33:56.885Z,54.22
2019-04-10T20:36:26.305Z,54.30
2019-04-10T20:38:55.507Z,54.15
2019-04-10T20:41:24.681Z,54.68
2019-04-10T20:43:53.850Z,54.85
2019-04-10T20:46:24.248Z,54.53
2019-04-10T20:48:53.499Z,54.86
2019-04-10T20:51:24.865Z,54.81
2019-04-10T20:53:54.114Z,54.76
2019-04-10T20:56:24.266Z,54.85
2019-04-10T20:58:53.559Z,54.92
2019-04-10T21:01:22.767Z,55.13
2019-04-10T21:03:52.398Z,55.35
2019-04-10T21:06:23.759Z,55.61
2019-04-10T21:08:52.912Z,55.85
2019-04-10T21:11:22.659Z,55.93
2019-04-10T21:13:51.849Z,56.11
2019-04-10T21:16:21.059Z,56.28
2019-04-10T21:18:50.244Z,56.22
2019-04-10T21:21:19.485Z,56.57
2019-04-10T21:23:48.795Z,56.78
2019-04-10T21:26:17.949Z,56.79
2019-04-10T21:28:48.118Z,57.16
2019-04-10T21:31:18.953Z,57.34
2019-04-10T21:34:05.566Z,57.46
2019-04-10T21:36:37.051Z,57.74
2019-04-10T21:39:07.912Z,58.17
2019-04-10T21:41:37.091Z,58.46
2019-04-10T21:44:06.462Z,58.02
2019-04-10T21:46:36.714Z,58.10
2019-04-10T21:49:06.027Z,58.01
2019-04-10T21:51:35.207Z,58.20
2019-04-10T21:54:04.414Z,58.41
2019-04-10T21:56:33.560Z,58.26
2019-04-10T21:59:03.200Z,58.19
2019-04-10T22:01:32.583Z,58.71
2019-04-10T22:04:02.759Z,58.52
2019-04-10T22:06:40.009Z,58.57
2019-04-10T22:09:14.552Z,58.70
2019-04-10T22:11:45.647Z,58.59
2019-04-10T22:14:15.124Z,58.56
2019-04-10T22:16:44.408Z,58.48
2019-04-10T22:19:14.429Z,58.74
2019-04-10T22:21:44.054Z,59.14
2019-04-10T22:24:13.668Z,58.89
2019-04-10T22:26:42.936Z,58.63
2019-04-10T22:29:12.240Z,58.48
2019-04-10T22:31:41.660Z,58.85
2019-04-10T22:34:11.768Z,58.80
2019-04-10T22:36:41.565Z,58.39
2019-04-10T22:39:12.398Z,58.39
2019-04-10T22:41:42.705Z,58.21
2019-04-10T22:44:12.332Z,58.62
2019-04-10T22:46:42.566Z,58.66
2019-04-10T22:49:12.431Z,58.92
2019-04-10T22:51:41.806Z,59.02
2019-04-10T22:54:11.800Z,59.02
2019-04-10T22:56:42.523Z,59.30
2019-04-10T22:59:11.770Z,59.21
2019-04-10T23:01:40.926Z,59.16
2019-04-10T23:04:10.147Z,59.11
2019-04-10T23:06:39.626Z,59.28
2019-04-10T23:09:10.171Z,59.33
2019-04-10T23:11:42.223Z,59.35
2019-04-10T23:14:10.425Z,59.37
2019-04-10T23:16:40.055Z,59.55
2019-04-10T23:19:09.931Z,59.42
2019-04-10T23:21:39.156Z,59.74
2019-04-10T23:24:09.475Z,59.70
2019-04-10T23:26:39.538Z,59.61
2019-04-10T23:29:08.779Z,59.73
2019-04-10T23:31:37.968Z,59.65
2019-04-10T23:34:08.303Z,59.91
2019-04-10T23:36:40.401Z,59.99
2019-04-10T23:39:10.105Z,60.01
2019-04-10T23:41:40.014Z,60.06
2019-04-10T23:44:09.277Z,60.04
2019-04-10T23:46:38.897Z,60.05
2019-04-10T23:49:08.984Z,60.55
2019-04-10T23:51:39.093Z,60.54
2019-04-10T23:54:09.044Z,60.64
2019-04-10T23:56:38.350Z,60.85
2019-04-10T23:59:08.648Z,60.57
